createdAt,value
2018-07-07T00:00:40.943Z,99.99
2018-07-07T00:01:40.977Z,99.99
2018-07-07T00:02:41.011Z,99.99
2018-07-07T00:03:41.046Z,99.99
2018-07-07T00:04:41.080Z,99.99
2018-07-07T00:05:41.114Z,99.99
2018-07-07T00:06:41.148Z,99.99
2018-07-07T00:07:41.183Z,99.99
2018-07-07T00:08:41.218Z,99.99
2018-07-07T00:09:41.252Z,99.99
2018-07-07T00:10:41.287Z,99.99
2018-07-07T00:11:41.321Z,99.99
2018-07-07T00:12:41.356Z,99.99
2018-07-07T00:13:41.388Z,99.99
2018-07-07T00:14:41.430Z,99.99
2018-07-07T00:15:41.458Z,99.99
2018-07-07T00:16:41.495Z,99.99
2018-07-07T00:17:41.525Z,99.99
2018-07-07T00:18:41.560Z,99.99
2018-07-07T00:19:41.597Z,99.99
2018-07-07T00:20:41.629Z,99.99
2018-07-07T00:21:41.663Z,99.99
2018-07-07T00:22:41.700Z,99.99
2018-07-07T00:23:41.731Z,99.99
2018-07-07T00:24:41.767Z,99.99
2018-07-07T00:25:41.800Z,99.99
2018-07-07T00:26:41.834Z,99.99
2018-07-07T00:27:41.877Z,99.99
2018-07-07T00:28:41.904Z,99.99
2018-07-07T00:29:41.938Z,99.99
2018-07-07T00:30:41.972Z,99.99
2018-07-07T00:31:42.006Z,99.99
2018-07-07T00:32:42.041Z,99.99
2018-07-07T00:33:42.077Z,99.99
2018-07-07T00:34:42.113Z,99.99
2018-07-07T00:35:42.142Z,99.99
2018-07-07T00:36:42.177Z,99.99
2018-07-07T00:37:42.212Z,99.99
2018-07-07T00:38:42.245Z,99.99
2018-07-07T00:39:42.281Z,99.99
2018-07-07T00:40:42.315Z,99.99
2018-07-07T00:41:42.349Z,99.99
2018-07-07T00:42:42.382Z,99.99
2018-07-07T00:43:42.417Z,99.99
2018-07-07T00:44:42.451Z,99.99
2018-07-07T00:45:42.485Z,99.99
2018-07-07T00:46:42.519Z,99.99
2018-07-07T00:47:42.554Z,99.99
2018-07-07T00:48:42.589Z,99.99
2018-07-07T00:49:42.622Z,99.99
2018-07-07T00:50:42.656Z,99.99
2018-07-07T00:51:42.691Z,99.99
2018-07-07T00:52:42.725Z,99.99
2018-07-07T00:53:42.758Z,99.99
2018-07-07T00:54:42.792Z,99.99
2018-07-07T00:55:42.827Z,99.99
2018-07-07T00:56:42.861Z,99.99
2018-07-07T00:57:42.894Z,99.99
2018-07-07T00:58:42.979Z,99.99
2018-07-07T00:59:42.964Z,99.99
2018-07-07T01:00:42.998Z,99.99
2018-07-07T01:01:43.032Z,99.99
2018-07-07T01:02:43.065Z,99.99
2018-07-07T01:03:43.100Z,99.99
2018-07-07T01:04:43.134Z,99.99
2018-07-07T01:05:43.167Z,99.99
2018-07-07T01:06:43.205Z,99.99
2018-07-07T01:07:43.236Z,99.99
2018-07-07T01:08:43.272Z,99.99
2018-07-07T01:09:43.308Z,99.99
2018-07-07T01:10:43.338Z,99.99
2018-07-07T01:11:43.374Z,99.99
2018-07-07T01:12:43.407Z,99.99
2018-07-07T01:13:43.442Z,99.99
2018-07-07T01:14:43.475Z,99.99
2018-07-07T01:15:43.509Z,99.99
2018-07-07T01:16:43.544Z,99.99
2018-07-07T01:17:43.578Z,99.99
2018-07-07T01:18:43.611Z,99.99
2018-07-07T01:19:43.645Z,99.99
2018-07-07T01:20:43.680Z,99.99
2018-07-07T01:21:43.716Z,99.99
2018-07-07T01:22:43.747Z,99.99
2018-07-07T01:23:43.782Z,99.99
2018-07-07T01:24:43.818Z,99.99
2018-07-07T01:25:43.851Z,99.99
2018-07-07T01:26:43.884Z,99.99
2018-07-07T01:27:43.919Z,99.99
2018-07-07T01:28:43.953Z,99.99
2018-07-07T01:29:43.985Z,99.99
2018-07-07T01:30:44.021Z,99.99
2018-07-07T01:31:44.054Z,99.99
2018-07-07T01:32:44.101Z,99.99
2018-07-07T01:33:44.122Z,99.99
2018-07-07T01:34:44.157Z,99.99
2018-07-07T01:35:44.191Z,99.99
2018-07-07T01:36:44.226Z,99.99
2018-07-07T01:37:44.281Z,99.99
2018-07-07T01:38:44.292Z,99.99
2018-07-07T01:39:44.325Z,99.99
2018-07-07T01:40:44.361Z,99.99
2018-07-07T01:41:44.394Z,99.99
2018-07-07T01:42:44.428Z,99.99
2018-07-07T01:43:44.463Z,99.99
2018-07-07T01:44:44.496Z,99.99
2018-07-07T01:45:44.529Z,99.99
2018-07-07T01:46:44.563Z,99.99
2018-07-07T01:47:44.597Z,99.99
2018-07-07T01:48:44.705Z,99.99
2018-07-07T01:49:44.668Z,99.99
2018-07-07T01:50:44.700Z,99.99
2018-07-07T01:51:44.733Z,99.99
2018-07-07T01:52:44.772Z,99.99
2018-07-07T01:53:44.800Z,99.99
2018-07-07T01:54:44.834Z,99.99
2018-07-07T01:55:44.869Z,99.99
2018-07-07T01:56:44.902Z,99.99
2018-07-07T01:57:44.938Z,99.99
2018-07-07T01:58:44.970Z,99.99
2018-07-07T01:59:45.004Z,99.99
2018-07-07T02:00:45.042Z,99.99
2018-07-07T02:01:45.071Z,99.99
2018-07-07T02:02:45.104Z,99.99
2018-07-07T02:03:45.139Z,99.99
2018-07-07T02:04:45.174Z,99.99
2018-07-07T02:05:45.207Z,99.99
2018-07-07T02:06:45.241Z,99.99
2018-07-07T02:07:45.274Z,99.99
2018-07-07T02:08:45.309Z,99.99
2018-07-07T02:09:45.342Z,99.99
2018-07-07T02:10:45.375Z,99.99
2018-07-07T02:11:45.411Z,99.99
2018-07-07T02:12:45.445Z,99.99
2018-07-07T02:13:45.477Z,99.99
2018-07-07T02:14:45.511Z,99.99
2018-07-07T02:15:45.546Z,99.99
2018-07-07T02:16:45.580Z,99.99
2018-07-07T02:17:45.613Z,99.99
2018-07-07T02:18:45.703Z,99.99
2018-07-07T02:19:45.680Z,99.99
2018-07-07T02:20:45.714Z,99.99
2018-07-07T02:21:45.750Z,99.99
2018-07-07T02:22:45.781Z,99.99
2018-07-07T02:23:45.815Z,99.99
2018-07-07T02:24:45.851Z,99.99
2018-07-07T02:25:45.887Z,99.99
2018-07-07T02:26:45.917Z,99.99
2018-07-07T02:32:35.267Z,99.99
2018-07-07T02:33:35.301Z,99.99
2018-07-07T02:34:35.333Z,99.99
2018-07-07T02:35:35.368Z,99.99
2018-07-07T02:36:35.405Z,99.99
2018-07-07T02:37:35.438Z,99.99
2018-07-07T02:38:35.467Z,99.99
2018-07-07T02:39:35.502Z,99.99
2018-07-07T02:40:35.536Z,99.99
2018-07-07T02:41:35.570Z,99.99
2018-07-07T02:42:35.603Z,99.99
2018-07-07T02:43:35.637Z,99.99
2018-07-07T02:44:35.671Z,99.99
2018-07-07T02:45:35.709Z,99.99
2018-07-07T02:46:35.738Z,99.99
2018-07-07T02:47:35.773Z,99.99
2018-07-07T02:48:35.805Z,99.99
2018-07-07T02:49:35.840Z,99.99
2018-07-07T02:50:35.873Z,99.99
2018-07-07T02:51:35.907Z,99.99
2018-07-07T02:52:35.941Z,99.99
2018-07-07T02:53:35.978Z,99.99
2018-07-07T02:54:36.008Z,99.99
2018-07-07T02:55:36.044Z,99.99
2018-07-07T02:56:36.076Z,99.99
2018-07-07T02:57:36.110Z,99.99
2018-07-07T02:58:36.142Z,99.99
2018-07-07T02:59:36.189Z,99.99
2018-07-07T03:00:36.211Z,99.99
2018-07-07T03:01:36.245Z,99.99
2018-07-07T03:02:36.284Z,99.99
2018-07-07T03:03:36.312Z,99.99
2018-07-07T03:04:36.346Z,99.99
2018-07-07T03:05:36.380Z,99.99
2018-07-07T03:06:36.412Z,99.99
2018-07-07T03:07:36.447Z,99.99
2018-07-07T03:08:36.480Z,99.99
2018-07-07T03:09:36.514Z,99.99
2018-07-07T03:10:36.548Z,99.99
2018-07-07T03:11:36.583Z,99.99
2018-07-07T03:12:36.616Z,99.99
2018-07-07T03:13:36.649Z,99.99
2018-07-07T03:14:36.684Z,99.99
2018-07-07T03:16:36.750Z,99.99
2018-07-07T03:18:36.816Z,99.99
2018-07-07T03:19:36.851Z,99.99
2018-07-07T03:20:36.884Z,99.99
2018-07-07T03:21:36.919Z,99.99
2018-07-07T03:22:36.952Z,99.99
2018-07-07T03:23:36.988Z,99.99
2018-07-07T03:24:37.018Z,99.99
2018-07-07T03:25:37.053Z,99.99
2018-07-07T03:26:37.086Z,99.99
2018-07-07T03:27:37.119Z,99.99
2018-07-07T03:28:37.159Z,99.99
2018-07-07T03:29:37.188Z,99.99
2018-07-07T03:30:37.221Z,99.99
2018-07-07T03:31:37.256Z,99.99
2018-07-07T03:32:37.288Z,99.99
2018-07-07T03:33:37.323Z,99.99
2018-07-07T03:34:37.357Z,99.99
2018-07-07T03:35:37.389Z,99.99
2018-07-07T03:36:37.423Z,99.99
2018-07-07T03:37:37.456Z,99.99
2018-07-07T03:38:37.490Z,99.99
2018-07-07T03:39:37.524Z,99.99
2018-07-07T03:40:37.557Z,99.99
2018-07-07T03:41:37.591Z,99.99
2018-07-07T03:42:37.624Z,99.99
2018-07-07T03:43:37.658Z,99.99
2018-07-07T03:44:37.691Z,99.99
2018-07-07T03:45:37.728Z,99.99
2018-07-07T03:46:37.757Z,99.99
2018-07-07T03:47:37.792Z,99.99
2018-07-07T03:48:37.832Z,99.99
2018-07-07T03:49:37.859Z,99.99
2018-07-07T03:50:37.893Z,99.99
2018-07-07T03:51:37.926Z,99.99
2018-07-07T03:52:37.962Z,99.99
2018-07-07T03:53:37.994Z,99.99
2018-07-07T03:54:38.027Z,99.99
2018-07-07T03:55:38.061Z,99.99
2018-07-07T03:56:38.096Z,99.99
2018-07-07T03:57:38.129Z,99.99
2018-07-07T03:58:38.161Z,99.99
2018-07-07T03:59:38.241Z,99.99
2018-07-07T04:00:38.229Z,99.99
2018-07-07T04:01:38.263Z,99.99
2018-07-07T04:02:38.296Z,99.99
2018-07-07T04:03:38.330Z,99.99
2018-07-07T04:04:38.363Z,99.99
2018-07-07T04:05:38.397Z,99.99
2018-07-07T04:06:38.431Z,99.99
2018-07-07T04:07:38.464Z,99.99
2018-07-07T04:08:38.498Z,99.99
2018-07-07T04:09:38.532Z,99.99
2018-07-07T04:10:38.565Z,99.99
2018-07-07T04:11:38.598Z,99.99
2018-07-07T04:12:38.632Z,99.99
2018-07-07T04:13:38.666Z,99.99
2018-07-07T04:14:38.702Z,99.99
2018-07-07T04:15:38.735Z,99.99
2018-07-07T04:16:38.769Z,99.99
2018-07-07T04:17:38.801Z,99.99
2018-07-07T04:18:38.832Z,99.99
2018-07-07T04:19:38.867Z,99.99
2018-07-07T04:20:38.901Z,99.99
2018-07-07T04:21:38.934Z,99.99
2018-07-07T04:22:38.967Z,99.99
2018-07-07T04:23:39.001Z,99.99
2018-07-07T04:24:39.035Z,99.99
2018-07-07T04:25:39.069Z,99.99
2018-07-07T04:26:39.107Z,99.99
2018-07-07T04:27:39.136Z,99.99
2018-07-07T04:28:39.169Z,99.99
2018-07-07T04:29:39.206Z,99.99
2018-07-07T04:30:39.289Z,99.99
2018-07-07T04:31:39.271Z,99.99
2018-07-07T04:32:39.307Z,99.99
2018-07-07T04:33:39.338Z,99.99
2018-07-07T04:34:39.371Z,99.99
2018-07-07T04:35:39.405Z,99.99
2018-07-07T04:37:39.473Z,99.99
2018-07-07T04:38:39.507Z,99.99
2018-07-07T04:39:39.541Z,99.99
2018-07-07T04:40:39.575Z,99.99
2018-07-07T04:41:39.609Z,99.99
2018-07-07T04:42:39.642Z,99.99
2018-07-07T04:43:39.676Z,99.99
2018-07-07T04:44:39.708Z,99.99
2018-07-07T04:45:39.744Z,99.99
2018-07-07T04:46:39.779Z,99.99
2018-07-07T04:47:39.815Z,99.99
2018-07-07T04:48:39.845Z,99.99
2018-07-07T04:49:39.879Z,99.99
2018-07-07T04:50:39.913Z,99.99
2018-07-07T04:51:39.947Z,99.99
2018-07-07T04:52:39.981Z,99.99
2018-07-07T04:53:40.016Z,99.99
2018-07-07T04:54:40.048Z,99.99
2018-07-07T04:55:40.087Z,99.99
2018-07-07T04:56:40.118Z,99.99
2018-07-07T04:57:40.151Z,99.99
2018-07-07T04:58:40.184Z,99.99
2018-07-07T04:59:40.217Z,99.99
2018-07-07T05:00:40.253Z,99.99
2018-07-07T05:01:40.287Z,99.99
2018-07-07T05:02:40.320Z,99.99
2018-07-07T05:03:40.354Z,99.99
2018-07-07T05:04:40.388Z,99.99
2018-07-07T05:05:40.423Z,99.99
2018-07-07T05:06:40.456Z,99.99
2018-07-07T05:07:40.490Z,99.99
2018-07-07T05:08:40.525Z,99.99
2018-07-07T05:09:40.558Z,99.99
2018-07-07T05:10:40.591Z,99.99
2018-07-07T05:11:40.627Z,99.99
2018-07-07T05:12:40.661Z,99.99
2018-07-07T05:13:40.695Z,99.99
2018-07-07T05:14:40.732Z,99.99
2018-07-07T05:16:13.972Z,99.99
2018-07-07T05:16:40.796Z,99.99
2018-07-07T05:17:40.832Z,99.99
2018-07-07T05:18:41.067Z,99.99
2018-07-07T05:19:40.899Z,99.99
2018-07-07T05:20:40.933Z,99.99
2018-07-07T05:21:40.969Z,99.99
2018-07-07T05:22:41.001Z,99.99
2018-07-07T05:23:41.037Z,99.99
2018-07-07T05:24:41.070Z,99.99
2018-07-07T05:25:41.106Z,99.99
2018-07-07T05:26:41.138Z,99.99
2018-07-07T05:28:41.208Z,99.99
2018-07-07T05:29:41.244Z,99.99
2018-07-07T05:30:41.276Z,99.99
2018-07-07T05:31:41.361Z,99.99
2018-07-07T05:32:41.345Z,99.99
2018-07-07T05:33:41.379Z,99.99
2018-07-07T05:34:41.413Z,99.99
2018-07-07T05:35:41.448Z,99.99
2018-07-07T05:36:41.483Z,99.99
2018-07-07T05:37:41.517Z,99.99
2018-07-07T05:38:41.551Z,99.99
2018-07-07T05:39:41.586Z,99.99
2018-07-07T05:40:41.620Z,99.99
2018-07-07T05:41:41.654Z,99.99
2018-07-07T05:42:41.688Z,99.99
2018-07-07T05:43:41.723Z,99.99
2018-07-07T05:44:41.757Z,99.99
2018-07-07T05:45:41.792Z,99.99
2018-07-07T05:46:41.828Z,99.99
2018-07-07T05:47:41.860Z,99.99
2018-07-07T05:48:41.895Z,99.99
2018-07-07T05:49:41.930Z,99.99
2018-07-07T05:50:41.964Z,99.99
2018-07-07T05:51:41.998Z,99.99
2018-07-07T05:52:42.034Z,99.99
2018-07-07T05:53:42.068Z,99.99
2018-07-07T05:54:42.101Z,99.99
2018-07-07T05:55:42.138Z,99.99
2018-07-07T05:56:42.171Z,99.99
2018-07-07T05:57:42.206Z,99.99
2018-07-07T05:58:42.238Z,99.99
2018-07-07T05:59:42.276Z,99.99
2018-07-07T06:00:42.309Z,99.99
2018-07-07T06:01:42.351Z,99.99
2018-07-07T06:02:42.377Z,99.99
2018-07-07T06:03:42.412Z,99.99
2018-07-07T06:04:42.447Z,99.99
2018-07-07T06:05:42.481Z,99.99
2018-07-07T06:06:42.517Z,99.99
2018-07-07T06:07:42.551Z,99.99
2018-07-07T06:08:42.589Z,99.99
2018-07-07T06:09:42.621Z,99.99
2018-07-07T06:10:42.656Z,99.99
2018-07-07T06:11:42.691Z,99.99
2018-07-07T06:12:42.726Z,99.99
2018-07-07T06:13:42.762Z,99.99
2018-07-07T06:14:42.795Z,99.99
2018-07-07T06:15:42.832Z,99.99
2018-07-07T06:16:42.866Z,99.99
2018-07-07T06:17:42.901Z,99.99
2018-07-07T06:18:42.935Z,99.99
2018-07-07T06:19:42.973Z,99.99
2018-07-07T06:20:43.007Z,99.99
2018-07-07T06:21:43.043Z,99.99
2018-07-07T06:22:43.077Z,99.99
2018-07-07T06:23:43.112Z,99.99
2018-07-07T06:24:43.148Z,99.99
2018-07-07T06:25:43.183Z,99.99
2018-07-07T06:26:43.228Z,99.99
2018-07-07T06:27:43.254Z,99.99
2018-07-07T06:28:43.289Z,99.99
2018-07-07T06:29:43.325Z,99.99
2018-07-07T06:30:43.359Z,99.99
2018-07-07T06:31:43.396Z,99.99
2018-07-07T06:32:43.432Z,99.99
2018-07-07T06:33:43.467Z,99.99
2018-07-07T06:34:43.503Z,99.99
2018-07-07T06:35:43.537Z,99.99
2018-07-07T06:36:43.575Z,99.99
2018-07-07T06:37:43.612Z,99.99
2018-07-07T06:38:43.644Z,99.99
2018-07-07T06:39:43.680Z,99.99
2018-07-07T06:40:43.716Z,99.99
2018-07-07T06:41:43.754Z,99.99
2018-07-07T06:42:43.786Z,99.99
2018-07-07T06:43:43.840Z,99.99
2018-07-07T06:44:43.860Z,99.99
2018-07-07T06:45:43.896Z,99.99
2018-07-07T06:46:43.931Z,99.99
2018-07-07T06:47:43.968Z,99.99
2018-07-07T06:48:44.004Z,99.99
2018-07-07T06:49:44.042Z,99.99
2018-07-07T06:50:44.075Z,99.99
2018-07-07T06:51:44.113Z,99.99
2018-07-07T06:52:44.148Z,99.99
2018-07-07T06:53:44.237Z,99.99
2018-07-07T06:54:44.220Z,99.99
2018-07-07T06:55:44.256Z,99.99
2018-07-07T06:56:44.293Z,99.99
2018-07-07T06:57:44.329Z,99.99
2018-07-07T06:58:44.364Z,99.99
2018-07-07T06:59:44.417Z,99.99
2018-07-07T07:00:44.437Z,99.99
2018-07-07T07:01:44.517Z,99.99
2018-07-07T07:02:44.509Z,99.99
2018-07-07T07:03:44.547Z,99.99
2018-07-07T07:04:44.583Z,99.99
2018-07-07T07:05:44.620Z,99.99
2018-07-07T07:06:44.657Z,99.99
2018-07-07T07:07:44.691Z,99.99
2018-07-07T07:08:44.728Z,99.99
2018-07-07T07:09:44.766Z,99.99
2018-07-07T07:10:44.801Z,99.99
2018-07-07T07:11:44.839Z,99.99
2018-07-07T07:12:44.875Z,99.99
2018-07-07T07:13:44.916Z,99.99
2018-07-07T07:14:44.949Z,99.99
2018-07-07T07:15:44.986Z,99.99
2018-07-07T07:16:45.026Z,99.99
2018-07-07T07:17:45.060Z,99.99
2018-07-07T07:18:45.096Z,99.99
2018-07-07T07:19:45.132Z,99.99
2018-07-07T07:20:45.171Z,99.99
2018-07-07T07:21:45.208Z,99.99
2018-07-07T07:22:45.242Z,99.99
2018-07-07T07:23:45.281Z,99.99
2018-07-07T07:24:45.318Z,99.99
2018-07-07T07:25:45.356Z,99.99
2018-07-07T07:26:45.392Z,99.99
2018-07-07T07:27:45.429Z,99.99
2018-07-07T07:28:45.469Z,99.99
2018-07-07T07:29:45.503Z,99.99
2018-07-07T07:30:45.542Z,99.99
2018-07-07T07:31:45.579Z,99.99
2018-07-07T07:32:45.615Z,99.99
2018-07-07T07:33:45.652Z,99.99
2018-07-07T07:34:45.689Z,99.99
2018-07-07T07:35:45.727Z,99.99
2018-07-07T07:36:45.852Z,99.99
2018-07-07T07:37:45.802Z,99.99
2018-07-07T07:38:45.839Z,99.99
2018-07-07T07:39:45.876Z,99.99
2018-07-07T07:40:45.913Z,99.99
2018-07-07T07:41:45.951Z,99.99
2018-07-07T07:42:45.987Z,99.99
2018-07-07T07:43:46.026Z,99.99
2018-07-07T07:44:46.063Z,99.99
2018-07-07T07:45:46.101Z,99.99
2018-07-07T07:46:46.141Z,99.99
2018-07-07T07:47:46.174Z,99.99
2018-07-07T07:48:46.213Z,99.99
2018-07-07T07:49:46.251Z,99.99
2018-07-07T07:50:46.289Z,99.99
2018-07-07T07:51:46.326Z,99.99
2018-07-07T07:52:46.398Z,99.99
2018-07-07T07:53:46.401Z,99.99
2018-07-07T07:54:46.439Z,99.99
2018-07-07T07:55:46.477Z,99.84
2018-07-07T07:56:46.515Z,97.04
2018-07-07T07:57:46.553Z,96.94
2018-07-07T07:58:46.590Z,96.89
2018-07-07T07:59:46.628Z,98.78
2018-07-07T08:00:46.666Z,98.39
2018-07-07T08:01:46.705Z,97.09
2018-07-07T08:02:46.742Z,97.57
2018-07-07T08:03:46.781Z,97.38
2018-07-07T08:04:46.876Z,96.51
2018-07-07T08:05:46.878Z,96.99
2018-07-07T08:06:47.114Z,96.60
2018-07-07T08:07:46.933Z,95.93
2018-07-07T08:08:47.174Z,93.41
2018-07-07T08:09:47.012Z,94.96
2018-07-07T08:10:47.048Z,92.78
2018-07-07T08:11:47.088Z,92.68
2018-07-07T08:12:47.125Z,91.62
2018-07-07T08:13:47.166Z,91.33
2018-07-07T08:14:47.202Z,89.83
2018-07-07T08:15:47.241Z,88.62
2018-07-07T08:16:47.284Z,89.01
2018-07-07T08:17:47.318Z,91.04
2018-07-07T08:18:47.356Z,90.50
2018-07-07T08:19:47.395Z,90.80
2018-07-07T08:20:47.435Z,92.10
2018-07-07T08:21:47.473Z,89.92
2018-07-07T08:22:47.562Z,88.81
2018-07-07T08:23:47.551Z,88.13
2018-07-07T08:24:47.592Z,85.80
2018-07-07T08:25:47.629Z,87.74
2018-07-07T08:26:47.667Z,87.50
2018-07-07T08:27:47.707Z,88.76
2018-07-07T08:28:47.746Z,88.23
2018-07-07T08:29:47.786Z,87.26
2018-07-07T08:30:47.823Z,87.20
2018-07-07T08:31:47.862Z,87.88
2018-07-07T08:32:47.902Z,89.58
2018-07-07T08:33:47.941Z,88.71
2018-07-07T08:34:47.980Z,88.75
2018-07-07T08:35:48.018Z,86.72
2018-07-07T08:36:48.060Z,87.10
2018-07-07T08:37:48.101Z,85.36
2018-07-07T08:38:48.136Z,86.43
2018-07-07T08:39:48.176Z,84.20
2018-07-07T08:40:48.216Z,83.65
2018-07-07T08:41:48.303Z,84.34
2018-07-07T08:42:48.299Z,83.27
2018-07-07T08:43:49.143Z,83.27
2018-07-07T08:44:48.373Z,85.60
2018-07-07T08:45:48.413Z,87.24
2018-07-07T08:46:48.453Z,84.14
2018-07-07T08:47:48.492Z,82.40
2018-07-07T08:48:48.532Z,82.63
2018-07-07T08:49:48.590Z,80.98
2018-07-07T08:50:48.613Z,80.54
2018-07-07T08:51:48.652Z,80.83
2018-07-07T08:52:48.691Z,80.15
2018-07-07T08:53:48.933Z,80.54
2018-07-07T08:55:48.830Z,79.22
2018-07-07T08:56:48.851Z,81.45
2018-07-07T08:57:48.891Z,82.32
2018-07-07T08:58:48.931Z,80.29
2018-07-07T08:59:48.992Z,82.71
2018-07-07T09:00:49.010Z,81.84
2018-07-07T09:01:49.052Z,83.45
2018-07-07T09:02:49.090Z,82.32
2018-07-07T09:03:49.660Z,81.70
2018-07-07T09:04:49.172Z,83.06
2018-07-07T09:05:49.235Z,82.03
2018-07-07T09:06:49.578Z,82.71
2018-07-07T09:07:49.376Z,82.07
2018-07-07T09:08:49.354Z,77.99
2018-07-07T09:09:49.378Z,76.92
2018-07-07T09:10:49.413Z,76.38
2018-07-07T09:11:49.455Z,76.77
2018-07-07T09:12:49.496Z,77.25
2018-07-07T09:13:49.537Z,76.51
2018-07-07T09:14:49.577Z,77.68
2018-07-07T09:15:49.620Z,76.48
2018-07-07T09:16:49.663Z,76.38
2018-07-07T09:17:49.701Z,75.45
2018-07-07T09:18:49.749Z,76.12
2018-07-07T09:19:49.783Z,75.45
2018-07-07T09:20:49.843Z,74.80
2018-07-07T09:21:49.866Z,74.51
2018-07-07T09:22:49.906Z,71.30
2018-07-07T09:23:49.949Z,71.88
2018-07-07T09:24:49.989Z,73.60
2018-07-07T09:25:50.031Z,74.48
2018-07-07T09:26:50.072Z,74.69
2018-07-07T09:27:50.113Z,74.82
2018-07-07T09:28:50.175Z,77.74
2018-07-07T09:29:50.217Z,76.32
2018-07-07T09:31:50.280Z,72.41
2018-07-07T09:32:50.322Z,72.34
2018-07-07T09:34:50.405Z,73.28
2018-07-07T09:35:50.448Z,73.38
2018-07-07T09:36:50.490Z,74.35
2018-07-07T09:37:50.541Z,75.26
2018-07-07T09:38:50.604Z,72.64
2018-07-07T09:39:50.634Z,70.33
2018-07-07T09:40:50.677Z,71.01
2018-07-07T09:41:51.025Z,69.94
2018-07-07T09:42:50.763Z,68.80
2018-07-07T09:43:50.785Z,69.84
2018-07-07T09:44:50.827Z,74.39
2018-07-07T09:45:50.870Z,71.23
2018-07-07T09:46:50.911Z,73.08
2018-07-07T09:47:50.954Z,73.86
2018-07-07T09:48:50.997Z,70.40
2018-07-07T09:49:51.039Z,69.62
2018-07-07T09:50:51.081Z,68.16
2018-07-07T09:51:51.124Z,67.67
2018-07-07T09:52:51.170Z,65.66
2018-07-07T09:53:51.210Z,67.50
2018-07-07T09:54:51.252Z,65.50
2018-07-07T09:55:51.294Z,66.96
2018-07-07T09:56:51.337Z,59.74
2018-07-07T09:57:51.381Z,59.19
2018-07-07T09:58:51.425Z,58.31
2018-07-07T09:59:51.465Z,60.98
2018-07-07T10:00:51.509Z,60.00
2018-07-07T10:01:51.588Z,63.78
2018-07-07T10:02:51.593Z,61.96
2018-07-07T10:03:51.636Z,63.19
2018-07-07T10:04:51.678Z,64.55
2018-07-07T10:05:51.728Z,62.87
2018-07-07T10:06:51.765Z,63.39
2018-07-07T10:07:51.808Z,64.55
2018-07-07T10:08:51.851Z,62.83
2018-07-07T10:09:51.892Z,62.63
2018-07-07T10:10:51.936Z,58.38
2018-07-07T10:11:51.979Z,57.14
2018-07-07T10:13:52.065Z,59.51
2018-07-07T10:14:52.107Z,59.12
2018-07-07T10:15:52.150Z,58.53
2018-07-07T10:16:52.195Z,61.36
2018-07-07T10:17:52.237Z,60.75
2018-07-07T10:18:52.280Z,59.97
2018-07-07T10:19:52.322Z,58.83
2018-07-07T10:20:52.424Z,56.97
2018-07-07T10:21:52.611Z,58.22
2018-07-07T10:22:52.777Z,59.45
2018-07-07T10:23:52.495Z,58.97
2018-07-07T10:24:52.557Z,58.48
2018-07-07T10:25:53.007Z,58.22
2018-07-07T10:26:52.623Z,57.04
2018-07-07T10:27:52.891Z,59.38
2018-07-07T10:28:52.712Z,59.16
2018-07-07T10:29:52.775Z,59.16
2018-07-07T10:30:52.816Z,61.57
2018-07-07T10:31:52.859Z,59.78
2018-07-07T10:32:52.887Z,57.70
2018-07-07T10:33:52.946Z,57.89
2018-07-07T10:34:52.970Z,61.40
2018-07-07T10:35:53.031Z,61.50
2018-07-07T10:36:53.057Z,61.21
2018-07-07T10:37:53.121Z,61.79
2018-07-07T10:38:53.166Z,59.77
2018-07-07T10:39:53.515Z,56.65
2018-07-07T10:40:53.231Z,56.20
2018-07-07T10:41:53.275Z,55.12
2018-07-07T10:42:53.324Z,55.93
2018-07-07T10:43:53.360Z,57.17
2018-07-07T10:44:53.406Z,56.85
2018-07-07T10:45:53.614Z,56.65
2018-07-07T10:46:53.493Z,55.93
2018-07-07T10:47:53.560Z,54.35
2018-07-07T10:48:53.604Z,52.15
2018-07-07T10:49:57.261Z,48.11
2018-07-07T10:50:53.672Z,47.06
2018-07-07T10:51:53.720Z,46.27
2018-07-07T10:52:53.818Z,46.27
2018-07-07T10:53:53.811Z,46.74
2018-07-07T10:54:53.857Z,46.47
2018-07-07T10:56:53.954Z,43.06
2018-07-07T10:58:00.267Z,42.96
2018-07-07T10:58:54.124Z,46.17
2018-07-07T10:59:54.096Z,47.13
2018-07-07T11:00:54.143Z,47.77
2018-07-07T11:01:54.193Z,47.32
2018-07-07T11:02:54.242Z,44.65
2018-07-07T11:03:54.290Z,45.97
2018-07-07T11:04:54.340Z,43.38
2018-07-07T11:05:54.389Z,46.28
2018-07-07T11:06:54.438Z,44.20
2018-07-07T11:07:54.489Z,46.26
2018-07-07T11:08:54.540Z,43.33
2018-07-07T11:09:54.588Z,44.81
2018-07-07T11:10:57.262Z,44.22
2018-07-07T11:11:54.867Z,44.73
2018-07-07T11:12:54.742Z,44.81
2018-07-07T11:13:54.793Z,44.79
2018-07-07T11:14:54.864Z,47.94
2018-07-07T11:15:54.916Z,47.25
2018-07-07T11:16:54.948Z,48.94
2018-07-07T11:17:54.998Z,49.97
2018-07-07T11:18:55.050Z,51.88
2018-07-07T11:19:55.108Z,51.90
2018-07-07T11:20:55.148Z,51.81
2018-07-07T11:21:55.199Z,50.85
2018-07-07T11:22:55.249Z,50.46
2018-07-07T11:23:55.297Z,48.43
2018-07-07T11:24:55.347Z,45.48
2018-07-07T11:25:55.397Z,44.02
2018-07-07T11:26:55.448Z,43.80
2018-07-07T11:27:55.495Z,44.27
2018-07-07T11:28:55.544Z,44.26
2018-07-07T11:29:55.604Z,42.69
2018-07-07T11:30:55.641Z,41.90
2018-07-07T11:31:55.693Z,44.02
2018-07-07T11:32:55.740Z,42.69
2018-07-07T11:33:55.791Z,40.98
2018-07-07T11:34:55.839Z,41.65
2018-07-07T11:35:55.888Z,43.05
2018-07-07T11:36:55.985Z,40.19
2018-07-07T11:37:55.989Z,41.55
2018-07-07T11:38:56.039Z,40.11
2018-07-07T11:39:56.090Z,39.38
2018-07-07T11:40:56.140Z,39.26
2018-07-07T11:41:57.608Z,39.32
2018-07-07T11:42:56.242Z,42.89
2018-07-07T11:43:56.334Z,42.79
2018-07-07T11:44:56.347Z,42.34
2018-07-07T11:45:56.399Z,42.89
2018-07-07T11:46:56.450Z,42.57
2018-07-07T11:47:56.503Z,42.65
2018-07-07T11:48:56.573Z,42.24
2018-07-07T11:49:56.608Z,43.27
2018-07-07T11:50:56.661Z,42.63
2018-07-07T11:51:56.711Z,40.92
2018-07-07T11:52:56.764Z,41.53
2018-07-07T11:53:57.031Z,39.84
2018-07-07T11:54:56.867Z,38.90
2018-07-07T11:55:57.143Z,36.21
2018-07-07T11:56:56.971Z,34.27
2018-07-07T11:57:57.024Z,34.59
2018-07-07T11:58:57.077Z,37.18
2018-07-07T11:59:57.130Z,35.55
2018-07-07T12:00:58.397Z,34.97
2018-07-07T12:01:57.284Z,34.00
2018-07-07T12:02:57.290Z,32.46
2018-07-07T12:03:57.343Z,31.71
2018-07-07T12:04:57.410Z,33.04
2018-07-07T12:05:57.452Z,36.22
2018-07-07T12:06:57.522Z,38.71
2018-07-07T12:08:00.902Z,40.17
2018-07-07T12:08:57.611Z,38.85
2018-07-07T12:09:57.669Z,37.92
2018-07-07T12:11:57.768Z,35.89
2018-07-07T12:12:57.822Z,33.95
2018-07-07T12:13:57.893Z,34.18
2018-07-07T12:14:57.926Z,33.21
2018-07-07T12:15:57.979Z,32.20
2018-07-07T12:17:45.608Z,36.61
2018-07-07T12:18:45.660Z,33.00
2018-07-07T12:19:45.712Z,33.07
2018-07-07T12:20:45.765Z,33.52
2018-07-07T12:21:45.821Z,35.11
2018-07-07T12:22:45.873Z,34.03
2018-07-07T12:23:45.926Z,35.64
2018-07-07T12:24:46.023Z,35.28
2018-07-07T12:27:16.850Z,36.59
2018-07-07T12:28:16.902Z,34.01
2018-07-07T12:29:16.955Z,33.13
2018-07-07T12:30:17.009Z,36.04
2018-07-07T12:31:17.066Z,36.73
2018-07-07T12:32:17.129Z,35.78
2018-07-07T12:33:17.176Z,35.11
2018-07-07T12:34:17.227Z,34.59
2018-07-07T12:35:17.283Z,33.16
2018-07-07T12:36:17.337Z,32.18
2018-07-07T12:37:17.393Z,30.36
2018-07-07T12:38:17.447Z,31.45
2018-07-07T12:39:17.500Z,31.26
2018-07-07T12:40:17.556Z,32.33
2018-07-07T12:41:17.612Z,30.87
2018-07-07T12:42:17.668Z,30.69
2018-07-07T12:43:17.720Z,30.79
2018-07-07T12:44:17.776Z,31.82
2018-07-07T12:45:17.831Z,31.77
2018-07-07T12:46:17.887Z,31.42
2018-07-07T12:47:17.941Z,32.15
2018-07-07T12:48:17.996Z,33.13
2018-07-07T12:49:18.051Z,35.27
2018-07-07T12:50:18.106Z,35.15
2018-07-07T12:51:18.160Z,35.15
2018-07-07T12:52:18.216Z,34.18
2018-07-07T12:53:18.270Z,33.21
2018-07-07T12:54:18.325Z,33.21
2018-07-07T12:55:18.382Z,33.03
2018-07-07T12:56:18.435Z,33.41
2018-07-07T12:57:18.492Z,33.79
2018-07-07T12:58:18.545Z,33.98
2018-07-07T12:59:18.600Z,36.71
2018-07-07T13:00:18.655Z,36.38
2018-07-07T13:01:18.716Z,37.05
2018-07-07T13:02:18.763Z,38.20
2018-07-07T13:03:18.818Z,39.52
2018-07-07T13:04:18.872Z,38.02
2018-07-07T13:05:18.924Z,36.78
2018-07-07T13:06:18.976Z,35.89
2018-07-07T13:07:19.031Z,34.44
2018-07-07T13:08:19.084Z,35.04
2018-07-07T13:09:19.139Z,34.94
2018-07-07T13:10:19.191Z,35.04